sensor_id;sensor_type;location;lat;lon;timestamp;pressure;altitude;pressure_sealevel;temperature;humidity
43125;BME280;49182;50.788;7.318;2023-06-10T00:00:03;100617.84;;;16.81;73.96
43125;BME280;49182;50.788;7.318;2023-06-10T00:02:38;100618.72;;;16.74;74.64
43125;BME280;49182;50.788;7.318;2023-06-10T00:05:05;100612.91;;;16.70;75.33
43125;BME280;49182;50.788;7.318;2023-06-10T00:07:33;100612.09;;;16.62;75.67
43125;BME280;49182;50.788;7.318;2023-06-10T00:10:00;100613.59;;;16.56;75.90
43125;BME280;49182;50.788;7.318;2023-06-10T00:12:27;100617.13;;;16.48;76.05
43125;BME280;49182;50.788;7.318;2023-06-10T00:14:53;100618.00;;;16.41;75.58
43125;BME280;49182;50.788;7.318;2023-06-10T00:17:20;100619.53;;;16.35;75.36
43125;BME280;49182;50.788;7.318;2023-06-10T00:19:47;100608.34;;;16.32;75.89
43125;BME280;49182;50.788;7.318;2023-06-10T00:22:14;100608.72;;;16.29;76.04
43125;BME280;49182;50.788;7.318;2023-06-10T00:24:42;100618.69;;;16.27;76.81
43125;BME280;49182;50.788;7.318;2023-06-10T00:27:08;100611.88;;;16.24;77.43
43125;BME280;49182;50.788;7.318;2023-06-10T00:29:35;100613.22;;;16.20;77.75
43125;BME280;49182;50.788;7.318;2023-06-10T00:32:02;100616.06;;;16.18;78.85
43125;BME280;49182;50.788;7.318;2023-06-10T00:34:29;100603.63;;;16.03;78.87
43125;BME280;49182;50.788;7.318;2023-06-10T00:36:57;100612.41;;;16.11;79.61
43125;BME280;49182;50.788;7.318;2023-06-10T00:39:24;100612.09;;;16.06;79.82
43125;BME280;49182;50.788;7.318;2023-06-10T00:41:52;100605.28;;;15.96;79.99
43125;BME280;49182;50.788;7.318;2023-06-10T00:44:18;100612.44;;;15.95;80.41
43125;BME280;49182;50.788;7.318;2023-06-10T00:46:45;100620.09;;;15.90;80.57
43125;BME280;49182;50.788;7.318;2023-06-10T00:49:12;100616.78;;;15.88;80.94
43125;BME280;49182;50.788;7.318;2023-06-10T00:51:39;100604.28;;;15.81;81.36
43125;BME280;49182;50.788;7.318;2023-06-10T00:54:07;100613.63;;;15.76;81.25
43125;BME280;49182;50.788;7.318;2023-06-10T00:56:35;100621.59;;;15.68;81.54
43125;BME280;49182;50.788;7.318;2023-06-10T00:59:03;100588.81;;;15.44;81.43
43125;BME280;49182;50.788;7.318;2023-06-10T01:01:29;100625.97;;;15.61;81.94
43125;BME280;49182;50.788;7.318;2023-06-10T01:03:56;100625.59;;;15.56;81.84
43125;BME280;49182;50.788;7.318;2023-06-10T01:06:30;100619.63;;;15.54;82.32
43125;BME280;49182;50.788;7.318;2023-06-10T01:09:02;100617.97;;;15.53;82.32
43125;BME280;49182;50.788;7.318;2023-06-10T01:11:36;100629.09;;;15.49;82.33
43125;BME280;49182;50.788;7.318;2023-06-10T01:14:04;100626.25;;;15.42;82.77
43125;BME280;49182;50.788;7.318;2023-06-10T01:16:31;100626.41;;;15.41;82.97
43125;BME280;49182;50.788;7.318;2023-06-10T01:18:58;100632.03;;;15.37;83.45
43125;BME280;49182;50.788;7.318;2023-06-10T01:21:25;100631.56;;;15.34;83.56
43125;BME280;49182;50.788;7.318;2023-06-10T01:23:53;100628.72;;;15.27;83.56
43125;BME280;49182;50.788;7.318;2023-06-10T01:26:24;100627.22;;;15.25;84.15
43125;BME280;49182;50.788;7.318;2023-06-10T01:28:56;100611.38;;;15.07;84.22
43125;BME280;49182;50.788;7.318;2023-06-10T01:31:36;100624.22;;;15.12;84.06
43125;BME280;49182;50.788;7.318;2023-06-10T01:34:08;100624.53;;;15.09;84.72
43125;BME280;49182;50.788;7.318;2023-06-10T01:36:37;100626.50;;;14.98;84.78
43125;BME280;49182;50.788;7.318;2023-06-10T01:39:07;100628.97;;;14.92;84.09
43125;BME280;49182;50.788;7.318;2023-06-10T01:41:35;100627.31;;;14.91;84.45
43125;BME280;49182;50.788;7.318;2023-06-10T01:44:03;100627.63;;;14.88;84.27
43125;BME280;49182;50.788;7.318;2023-06-10T01:46:30;100631.78;;;14.90;85.47
43125;BME280;49182;50.788;7.318;2023-06-10T01:48:56;100627.47;;;14.89;85.95
43125;BME280;49182;50.788;7.318;2023-06-10T01:51:23;100629.78;;;14.84;86.15
43125;BME280;49182;50.788;7.318;2023-06-10T01:53:51;100632.94;;;14.80;86.07
43125;BME280;49182;50.788;7.318;2023-06-10T01:56:19;100630.44;;;14.78;86.70
43125;BME280;49182;50.788;7.318;2023-06-10T01:58:46;100627.44;;;14.73;86.76
43125;BME280;49182;50.788;7.318;2023-06-10T02:01:13;100635.56;;;14.72;86.73
43125;BME280;49182;50.788;7.318;2023-06-10T02:03:40;100617.75;;;14.64;87.51
43125;BME280;49182;50.788;7.318;2023-06-10T02:06:08;100634.03;;;14.69;87.67
43125;BME280;49182;50.788;7.318;2023-06-10T02:08:35;100619.06;;;14.60;88.21
43125;BME280;49182;50.788;7.318;2023-06-10T02:11:04;100633.19;;;14.61;88.84
43125;BME280;49182;50.788;7.318;2023-06-10T02:13:30;100625.69;;;14.56;88.40
43125;BME280;49182;50.788;7.318;2023-06-10T02:15:57;100631.66;;;14.50;88.32
43125;BME280;49182;50.788;7.318;2023-06-10T02:18:28;100634.94;;;14.44;88.21
43125;BME280;49182;50.788;7.318;2023-06-10T02:20:55;100638.88;;;14.40;88.04
43125;BME280;49182;50.788;7.318;2023-06-10T02:23:21;100616.69;;;14.23;88.34
43125;BME280;49182;50.788;7.318;2023-06-10T02:25:48;100630.19;;;14.30;88.08
43125;BME280;49182;50.788;7.318;2023-06-10T02:28:16;100623.78;;;14.14;87.90
43125;BME280;49182;50.788;7.318;2023-06-10T02:30:44;100643.09;;;14.25;88.00
43125;BME280;49182;50.788;7.318;2023-06-10T02:33:11;100653.03;;;14.23;87.84
43125;BME280;49182;50.788;7.318;2023-06-10T02:35:38;100651.38;;;14.22;87.81
43125;BME280;49182;50.788;7.318;2023-06-10T02:38:05;100656.00;;;14.19;87.30
43125;BME280;49182;50.788;7.318;2023-06-10T02:40:33;100649.03;;;14.18;87.53
43125;BME280;49182;50.788;7.318;2023-06-10T02:43:00;100652.91;;;14.24;89.11
43125;BME280;49182;50.788;7.318;2023-06-10T02:45:28;100651.22;;;14.23;89.55
43125;BME280;49182;50.788;7.318;2023-06-10T02:47:58;100655.00;;;14.21;90.02
43125;BME280;49182;50.788;7.318;2023-06-10T02:50:25;100651.50;;;14.12;90.13
43125;BME280;49182;50.788;7.318;2023-06-10T02:53:00;100655.13;;;14.11;89.64
43125;BME280;49182;50.788;7.318;2023-06-10T02:55:27;100658.78;;;14.10;89.51
43125;BME280;49182;50.788;7.318;2023-06-10T02:58:00;100630.59;;;13.91;89.38
43125;BME280;49182;50.788;7.318;2023-06-10T03:00:28;100650.91;;;14.00;89.50
43125;BME280;49182;50.788;7.318;2023-06-10T03:02:54;100655.53;;;13.98;89.27
43125;BME280;49182;50.788;7.318;2023-06-10T03:05:24;100641.91;;;13.93;89.47
43125;BME280;49182;50.788;7.318;2023-06-10T03:07:53;100635.00;;;13.83;89.54
43125;BME280;49182;50.788;7.318;2023-06-10T03:10:21;100642.19;;;13.90;90.07
43125;BME280;49182;50.788;7.318;2023-06-10T03:12:48;100651.69;;;13.93;90.99
43125;BME280;49182;50.788;7.318;2023-06-10T03:15:14;100650.47;;;13.87;91.45
43125;BME280;49182;50.788;7.318;2023-06-10T03:17:42;100650.56;;;13.77;90.90
43125;BME280;49182;50.788;7.318;2023-06-10T03:20:10;100651.34;;;13.70;90.88
43125;BME280;49182;50.788;7.318;2023-06-10T03:22:39;100656.25;;;13.65;90.81
43125;BME280;49182;50.788;7.318;2023-06-10T03:25:08;100655.75;;;13.61;90.96
43125;BME280;49182;50.788;7.318;2023-06-10T03:27:35;100659.22;;;13.62;91.09
43125;BME280;49182;50.788;7.318;2023-06-10T03:30:07;100665.81;;;13.58;91.04
43125;BME280;49182;50.788;7.318;2023-06-10T03:32:34;100664.16;;;13.57;91.27
43125;BME280;49182;50.788;7.318;2023-06-10T03:35:04;100653.09;;;13.44;91.73
43125;BME280;49182;50.788;7.318;2023-06-10T03:37:32;100667.09;;;13.54;91.81
43125;BME280;49182;50.788;7.318;2023-06-10T03:39:59;100677.56;;;13.55;92.14
43125;BME280;49182;50.788;7.318;2023-06-10T03:42:26;100674.38;;;13.52;92.50
43125;BME280;49182;50.788;7.318;2023-06-10T03:44:52;100676.03;;;13.53;92.34
43125;BME280;49182;50.788;7.318;2023-06-10T03:47:20;100674.22;;;13.53;92.47
43125;BME280;49182;50.788;7.318;2023-06-10T03:49:47;100673.09;;;13.56;91.94
43125;BME280;49182;50.788;7.318;2023-06-10T03:52:17;100679.06;;;13.58;92.17
43125;BME280;49182;50.788;7.318;2023-06-10T03:54:43;100680.75;;;13.59;91.94
43125;BME280;49182;50.788;7.318;2023-06-10T03:57:10;100680.59;;;13.60;92.02
43125;BME280;49182;50.788;7.318;2023-06-10T03:59:37;100680.59;;;13.60;91.74
43125;BME280;49182;50.788;7.318;2023-06-10T04:02:04;100682.97;;;13.63;92.08
43125;BME280;49182;50.788;7.318;2023-06-10T04:04:32;100677.34;;;13.66;91.63
43125;BME280;49182;50.788;7.318;2023-06-10T04:06:58;100672.03;;;13.66;92.08
43125;BME280;49182;50.788;7.318;2023-06-10T04:09:27;100686.50;;;13.72;92.00
43125;BME280;49182;50.788;7.318;2023-06-10T04:11:53;100689.16;;;13.72;92.27
43125;BME280;49182;50.788;7.318;2023-06-10T04:14:20;100686.38;;;13.73;92.63
43125;BME280;49182;50.788;7.318;2023-06-10T04:16:47;100680.97;;;13.65;92.95
43125;BME280;49182;50.788;7.318;2023-06-10T04:19:14;100685.53;;;13.73;93.26
43125;BME280;49182;50.788;7.318;2023-06-10T04:21:41;100683.38;;;13.76;94.09
43125;BME280;49182;50.788;7.318;2023-06-10T04:24:08;100689.06;;;13.99;93.83
43125;BME280;49182;50.788;7.318;2023-06-10T04:26:37;100685.47;;;14.34;93.45
43125;BME280;49182;50.788;7.318;2023-06-10T04:29:04;100687.19;;;14.69;92.07
43125;BME280;49182;50.788;7.318;2023-06-10T04:31:31;100686.84;;;15.06;90.46
43125;BME280;49182;50.788;7.318;2023-06-10T04:33:59;100687.44;;;15.42;88.18
43125;BME280;49182;50.788;7.318;2023-06-10T04:36:26;100690.16;;;15.74;86.38
43125;BME280;49182;50.788;7.318;2023-06-10T04:38:53;100692.16;;;16.05;84.87
43125;BME280;49182;50.788;7.318;2023-06-10T04:41:20;100682.44;;;16.36;82.92
43125;BME280;49182;50.788;7.318;2023-06-10T04:43:48;100677.09;;;16.61;81.74
43125;BME280;49182;50.788;7.318;2023-06-10T04:46:15;100689.66;;;16.91;79.88
43125;BME280;49182;50.788;7.318;2023-06-10T04:48:43;100692.28;;;16.99;79.32
43125;BME280;49182;50.788;7.318;2023-06-10T04:51:09;100682.09;;;17.03;78.60
43125;BME280;49182;50.788;7.318;2023-06-10T04:53:36;100689.06;;;17.04;78.49
43125;BME280;49182;50.788;7.318;2023-06-10T04:56:03;100667.66;;;16.89;78.38
43125;BME280;49182;50.788;7.318;2023-06-10T04:58:30;100697.09;;;17.04;78.30
43125;BME280;49182;50.788;7.318;2023-06-10T05:00:57;100699.13;;;17.02;78.20
43125;BME280;49182;50.788;7.318;2023-06-10T05:03:24;100692.28;;;16.99;78.45
43125;BME280;49182;50.788;7.318;2023-06-10T05:05:51;100697.44;;;17.01;78.34
43125;BME280;49182;50.788;7.318;2023-06-10T05:08:18;100689.78;;;16.97;77.58
43125;BME280;49182;50.788;7.318;2023-06-10T05:10:44;100690.97;;;16.95;77.71
43125;BME280;49182;50.788;7.318;2023-06-10T05:13:11;100689.59;;;16.99;77.64
43125;BME280;49182;50.788;7.318;2023-06-10T05:15:37;100695.44;;;17.03;77.63
43125;BME280;49182;50.788;7.318;2023-06-10T05:18:05;100696.28;;;17.03;77.67
43125;BME280;49182;50.788;7.318;2023-06-10T05:20:32;100697.88;;;17.12;77.96
43125;BME280;49182;50.788;7.318;2023-06-10T05:22:59;100705.03;;;17.20;78.12
43125;BME280;49182;50.788;7.318;2023-06-10T05:25:26;100705.63;;;17.30;77.70
43125;BME280;49182;50.788;7.318;2023-06-10T05:27:52;100696.56;;;17.39;76.66
43125;BME280;49182;50.788;7.318;2023-06-10T05:30:19;100700.53;;;17.43;76.70
43125;BME280;49182;50.788;7.318;2023-06-10T05:32:46;100700.84;;;17.48;76.73
43125;BME280;49182;50.788;7.318;2023-06-10T05:35:14;100704.13;;;17.58;75.38
43125;BME280;49182;50.788;7.318;2023-06-10T05:37:40;100704.28;;;17.65;74.54
43125;BME280;49182;50.788;7.318;2023-06-10T05:40:08;100702.75;;;17.70;74.53
43125;BME280;49182;50.788;7.318;2023-06-10T05:42:35;100707.16;;;17.78;74.92
43125;BME280;49182;50.788;7.318;2023-06-10T05:45:02;100709.44;;;17.89;76.13
43125;BME280;49182;50.788;7.318;2023-06-10T05:47:28;100695.53;;;17.94;76.92
43125;BME280;49182;50.788;7.318;2023-06-10T05:49:55;100706.25;;;18.08;76.32
43125;BME280;49182;50.788;7.318;2023-06-10T05:52:23;100701.31;;;18.20;74.59
43125;BME280;49182;50.788;7.318;2023-06-10T05:54:50;100683.63;;;18.19;73.77
43125;BME280;49182;50.788;7.318;2023-06-10T05:57:16;100705.13;;;18.40;72.50
43125;BME280;49182;50.788;7.318;2023-06-10T05:59:43;100694.06;;;18.43;72.53
43125;BME280;49182;50.788;7.318;2023-06-10T06:02:10;100697.16;;;18.55;72.79
43125;BME280;49182;50.788;7.318;2023-06-10T06:04:36;100707.75;;;18.63;72.50
43125;BME280;49182;50.788;7.318;2023-06-10T06:07:03;100697.59;;;18.73;72.23
43125;BME280;49182;50.788;7.318;2023-06-10T06:09:31;100701.03;;;18.82;71.70
43125;BME280;49182;50.788;7.318;2023-06-10T06:11:58;100691.22;;;18.89;71.04
43125;BME280;49182;50.788;7.318;2023-06-10T06:14:24;100696.56;;;19.04;70.27
43125;BME280;49182;50.788;7.318;2023-06-10T06:16:51;100697.72;;;19.16;69.95
43125;BME280;49182;50.788;7.318;2023-06-10T06:19:18;100695.03;;;19.30;69.60
43125;BME280;49182;50.788;7.318;2023-06-10T06:21:44;100704.59;;;19.39;68.12
43125;BME280;49182;50.788;7.318;2023-06-10T06:24:11;100689.00;;;19.43;66.58
43125;BME280;49182;50.788;7.318;2023-06-10T06:26:39;100695.16;;;19.58;66.12
43125;BME280;49182;50.788;7.318;2023-06-10T06:29:05;100696.28;;;19.70;65.45
43125;BME280;49182;50.788;7.318;2023-06-10T06:31:32;100693.75;;;19.84;65.63
43125;BME280;49182;50.788;7.318;2023-06-10T06:33:59;100697.13;;;19.92;65.17
43125;BME280;49182;50.788;7.318;2023-06-10T06:36:25;100696.41;;;20.05;64.08
43125;BME280;49182;50.788;7.318;2023-06-10T06:38:52;100699.22;;;20.18;63.93
43125;BME280;49182;50.788;7.318;2023-06-10T06:41:21;100710.31;;;20.36;64.44
43125;BME280;49182;50.788;7.318;2023-06-10T06:43:49;100705.22;;;20.48;63.27
43125;BME280;49182;50.788;7.318;2023-06-10T06:46:23;100708.78;;;20.62;62.18
43125;BME280;49182;50.788;7.318;2023-06-10T06:48:50;100706.19;;;20.75;61.79
43125;BME280;49182;50.788;7.318;2023-06-10T06:51:17;100714.13;;;20.89;61.88
43125;BME280;49182;50.788;7.318;2023-06-10T06:53:43;100703.88;;;21.06;61.95
43125;BME280;49182;50.788;7.318;2023-06-10T06:56:12;100678.03;;;21.05;61.63
43125;BME280;49182;50.788;7.318;2023-06-10T06:58:39;100700.50;;;21.38;61.49
43125;BME280;49182;50.788;7.318;2023-06-10T07:01:07;100699.94;;;21.56;59.54
43125;BME280;49182;50.788;7.318;2023-06-10T07:03:33;100706.56;;;21.73;59.41
43125;BME280;49182;50.788;7.318;2023-06-10T07:06:00;100702.66;;;21.89;55.82
43125;BME280;49182;50.788;7.318;2023-06-10T07:08:27;100700.22;;;22.07;53.54
43125;BME280;49182;50.788;7.318;2023-06-10T07:10:53;100693.38;;;22.25;52.51
43125;BME280;49182;50.788;7.318;2023-06-10T07:13:20;100697.47;;;22.47;50.09
43125;BME280;49182;50.788;7.318;2023-06-10T07:15:47;100701.41;;;22.64;49.32
43125;BME280;49182;50.788;7.318;2023-06-10T07:18:15;100692.50;;;22.77;48.62
43125;BME280;49182;50.788;7.318;2023-06-10T07:20:42;100709.03;;;22.87;49.48
43125;BME280;49182;50.788;7.318;2023-06-10T07:23:09;100695.28;;;23.08;47.67
43125;BME280;49182;50.788;7.318;2023-06-10T07:25:35;100710.78;;;23.19;48.01
43125;BME280;49182;50.788;7.318;2023-06-10T07:28:02;100703.84;;;23.36;46.75
43125;BME280;49182;50.788;7.318;2023-06-10T07:30:29;100688.47;;;23.44;47.41
43125;BME280;49182;50.788;7.318;2023-06-10T07:32:56;100707.00;;;23.65;46.87
43125;BME280;49182;50.788;7.318;2023-06-10T07:35:24;100696.13;;;23.78;45.16
43125;BME280;49182;50.788;7.318;2023-06-10T07:37:51;100684.06;;;23.87;44.47
43125;BME280;49182;50.788;7.318;2023-06-10T07:40:18;100703.38;;;24.09;43.90
43125;BME280;49182;50.788;7.318;2023-06-10T07:42:44;100701.84;;;24.19;44.04
43125;BME280;49182;50.788;7.318;2023-06-10T07:45:11;100703.66;;;24.26;44.27
43125;BME280;49182;50.788;7.318;2023-06-10T07:47:38;100705.41;;;24.38;44.02
43125;BME280;49182;50.788;7.318;2023-06-10T07:50:05;100707.81;;;24.46;44.34
43125;BME280;49182;50.788;7.318;2023-06-10T07:52:33;100705.06;;;24.53;44.71
43125;BME280;49182;50.788;7.318;2023-06-10T07:55:00;100701.63;;;24.64;43.96
43125;BME280;49182;50.788;7.318;2023-06-10T07:57:26;100700.44;;;24.78;44.27
43125;BME280;49182;50.788;7.318;2023-06-10T07:59:53;100700.97;;;24.87;44.27
43125;BME280;49182;50.788;7.318;2023-06-10T08:02:20;100708.78;;;24.95;43.40
43125;BME280;49182;50.788;7.318;2023-06-10T08:04:51;100701.56;;;25.07;42.66
43125;BME280;49182;50.788;7.318;2023-06-10T08:07:17;100703.97;;;25.15;42.61
43125;BME280;49182;50.788;7.318;2023-06-10T08:09:45;100699.44;;;25.27;41.56
43125;BME280;49182;50.788;7.318;2023-06-10T08:12:12;100706.03;;;25.31;42.16
43125;BME280;49182;50.788;7.318;2023-06-10T08:14:41;100702.19;;;25.39;41.60
43125;BME280;49182;50.788;7.318;2023-06-10T08:17:08;100715.75;;;25.51;41.32
43125;BME280;49182;50.788;7.318;2023-06-10T08:19:34;100709.91;;;25.54;41.76
43125;BME280;49182;50.788;7.318;2023-06-10T08:22:01;100713.38;;;25.61;41.98
43125;BME280;49182;50.788;7.318;2023-06-10T08:24:28;100713.50;;;25.66;41.99
43125;BME280;49182;50.788;7.318;2023-06-10T08:26:56;100716.00;;;25.79;42.05
43125;BME280;49182;50.788;7.318;2023-06-10T08:29:23;100712.03;;;25.93;41.03
43125;BME280;49182;50.788;7.318;2023-06-10T08:31:49;100722.75;;;26.00;41.84
43125;BME280;49182;50.788;7.318;2023-06-10T08:34:16;100714.50;;;26.06;42.03
43125;BME280;49182;50.788;7.318;2023-06-10T08:36:43;100701.81;;;26.18;41.29
43125;BME280;49182;50.788;7.318;2023-06-10T08:39:10;100709.84;;;26.37;40.43
43125;BME280;49182;50.788;7.318;2023-06-10T08:41:40;100705.97;;;26.44;40.66
43125;BME280;49182;50.788;7.318;2023-06-10T08:44:15;100705.38;;;26.54;40.82
43125;BME280;49182;50.788;7.318;2023-06-10T08:46:44;100704.44;;;26.72;39.39
43125;BME280;49182;50.788;7.318;2023-06-10T08:49:15;100706.53;;;26.81;40.06
43125;BME280;49182;50.788;7.318;2023-06-10T08:51:45;100698.25;;;26.88;40.55
43125;BME280;49182;50.788;7.318;2023-06-10T08:54:18;100707.31;;;27.05;39.17
43125;BME280;49182;50.788;7.318;2023-06-10T08:56:49;100708.69;;;27.19;38.27
43125;BME280;49182;50.788;7.318;2023-06-10T08:59:17;100708.75;;;27.36;38.93
43125;BME280;49182;50.788;7.318;2023-06-10T09:01:44;100700.09;;;27.51;36.73
43125;BME280;49182;50.788;7.318;2023-06-10T09:04:11;100691.34;;;27.49;37.44
43125;BME280;49182;50.788;7.318;2023-06-10T09:06:39;100704.97;;;27.65;38.09
43125;BME280;49182;50.788;7.318;2023-06-10T09:09:07;100706.47;;;27.73;37.20
43125;BME280;49182;50.788;7.318;2023-06-10T09:11:34;100702.53;;;27.81;37.49
43125;BME280;49182;50.788;7.318;2023-06-10T09:14:01;100697.84;;;27.93;37.28
43125;BME280;49182;50.788;7.318;2023-06-10T09:16:29;100694.22;;;28.04;37.48
43125;BME280;49182;50.788;7.318;2023-06-10T09:18:55;100695.59;;;28.18;37.07
43125;BME280;49182;50.788;7.318;2023-06-10T09:21:22;100701.44;;;28.27;36.78
43125;BME280;49182;50.788;7.318;2023-06-10T09:23:49;100699.75;;;28.42;35.54
43125;BME280;49182;50.788;7.318;2023-06-10T09:26:17;100687.22;;;28.41;36.36
43125;BME280;49182;50.788;7.318;2023-06-10T09:28:43;100687.94;;;28.53;35.33
43125;BME280;49182;50.788;7.318;2023-06-10T09:31:11;100668.09;;;28.53;35.64
43125;BME280;49182;50.788;7.318;2023-06-10T09:33:40;100682.56;;;28.75;34.51
43125;BME280;49182;50.788;7.318;2023-06-10T09:36:07;100683.19;;;28.82;34.64
43125;BME280;49182;50.788;7.318;2023-06-10T09:38:34;100676.50;;;28.90;33.79
43125;BME280;49182;50.788;7.318;2023-06-10T09:41:03;100677.72;;;28.99;33.79
43125;BME280;49182;50.788;7.318;2023-06-10T09:43:47;100676.69;;;29.05;34.08
43125;BME280;49182;50.788;7.318;2023-06-10T09:46:15;100686.56;;;29.11;34.46
43125;BME280;49182;50.788;7.318;2023-06-10T09:48:45;100670.03;;;29.18;33.77
43125;BME280;49182;50.788;7.318;2023-06-10T09:51:12;100675.00;;;29.26;33.59
43125;BME280;49182;50.788;7.318;2023-06-10T09:53:39;100679.31;;;29.44;34.25
43125;BME280;49182;50.788;7.318;2023-06-10T09:56:06;100675.63;;;29.55;32.74
43125;BME280;49182;50.788;7.318;2023-06-10T09:58:36;100674.84;;;29.59;33.44
43125;BME280;49182;50.788;7.318;2023-06-10T10:01:08;100679.28;;;29.70;33.25
43125;BME280;49182;50.788;7.318;2023-06-10T10:03:44;100667.41;;;29.82;32.77
43125;BME280;49182;50.788;7.318;2023-06-10T10:06:11;100668.56;;;29.91;31.68
43125;BME280;49182;50.788;7.318;2023-06-10T10:08:39;100625.91;;;29.69;30.76
43125;BME280;49182;50.788;7.318;2023-06-10T10:11:06;100663.97;;;29.91;30.90
43125;BME280;49182;50.788;7.318;2023-06-10T10:13:33;100665.19;;;30.05;31.21
43125;BME280;49182;50.788;7.318;2023-06-10T10:16:04;100664.16;;;30.17;30.36
43125;BME280;49182;50.788;7.318;2023-06-10T10:18:35;100656.03;;;30.22;30.46
43125;BME280;49182;50.788;7.318;2023-06-10T10:21:11;100663.41;;;30.31;30.88
43125;BME280;49182;50.788;7.318;2023-06-10T10:23:41;100665.66;;;30.39;30.52
43125;BME280;49182;50.788;7.318;2023-06-10T10:26:10;100665.78;;;30.54;29.40
43125;BME280;49182;50.788;7.318;2023-06-10T10:28:41;100664.44;;;30.62;29.83
43125;BME280;49182;50.788;7.318;2023-06-10T10:31:14;100656.84;;;30.69;29.14
43125;BME280;49182;50.788;7.318;2023-06-10T10:33:45;100656.59;;;30.76;28.99
43125;BME280;49182;50.788;7.318;2023-06-10T10:36:18;100646.47;;;30.66;28.75
43125;BME280;49182;50.788;7.318;2023-06-10T10:38:47;100654.84;;;30.49;29.56
43125;BME280;49182;50.788;7.318;2023-06-10T10:41:19;100647.31;;;30.25;29.90
43125;BME280;49182;50.788;7.318;2023-06-10T10:43:46;100659.31;;;30.24;29.86
43125;BME280;49182;50.788;7.318;2023-06-10T10:46:15;100651.13;;;30.24;29.74
43125;BME280;49182;50.788;7.318;2023-06-10T10:48:43;100648.50;;;30.44;29.11
43125;BME280;49182;50.788;7.318;2023-06-10T10:51:10;100639.00;;;30.46;26.96
43125;BME280;49182;50.788;7.318;2023-06-10T10:53:39;100642.81;;;30.45;28.35
43125;BME280;49182;50.788;7.318;2023-06-10T10:56:08;100641.28;;;30.60;28.33
43125;BME280;49182;50.788;7.318;2023-06-10T10:58:37;100638.34;;;30.81;27.23
43125;BME280;49182;50.788;7.318;2023-06-10T11:01:10;100636.22;;;30.99;26.11
43125;BME280;49182;50.788;7.318;2023-06-10T11:03:42;100641.19;;;31.12;26.65
43125;BME280;49182;50.788;7.318;2023-06-10T11:06:12;100630.03;;;31.13;25.11
43125;BME280;49182;50.788;7.318;2023-06-10T11:08:47;100645.28;;;31.04;25.85
43125;BME280;49182;50.788;7.318;2023-06-10T11:11:21;100631.56;;;30.89;25.27
43125;BME280;49182;50.788;7.318;2023-06-10T11:14:11;100631.28;;;30.85;24.20
43125;BME280;49182;50.788;7.318;2023-06-10T11:16:39;100635.34;;;30.78;24.36
43125;BME280;49182;50.788;7.318;2023-06-10T11:19:07;100632.88;;;30.76;24.96
43125;BME280;49182;50.788;7.318;2023-06-10T11:21:45;100632.03;;;30.71;25.81
43125;BME280;49182;50.788;7.318;2023-06-10T11:24:25;100639.72;;;30.79;25.46
43125;BME280;49182;50.788;7.318;2023-06-10T11:26:52;100624.47;;;30.88;25.17
43125;BME280;49182;50.788;7.318;2023-06-10T11:29:18;100630.50;;;30.95;25.52
43125;BME280;49182;50.788;7.318;2023-06-10T11:31:49;100620.44;;;31.06;24.57
43125;BME280;49182;50.788;7.318;2023-06-10T11:34:22;100631.94;;;31.13;24.33
43125;BME280;49182;50.788;7.318;2023-06-10T11:36:49;100614.47;;;31.14;24.89
43125;BME280;49182;50.788;7.318;2023-06-10T11:39:17;100630.59;;;31.20;24.50
43125;BME280;49182;50.788;7.318;2023-06-10T11:41:45;100615.03;;;31.26;24.45
43125;BME280;49182;50.788;7.318;2023-06-10T11:44:13;100613.97;;;31.32;24.60
43125;BME280;49182;50.788;7.318;2023-06-10T11:46:45;100618.06;;;31.50;24.33
43125;BME280;49182;50.788;7.318;2023-06-10T11:49:14;100618.06;;;31.55;23.24
43125;BME280;49182;50.788;7.318;2023-06-10T11:51:41;100616.41;;;31.49;23.25
43125;BME280;49182;50.788;7.318;2023-06-10T11:54:08;100618.34;;;31.53;24.22
43125;BME280;49182;50.788;7.318;2023-06-10T11:56:36;100619.69;;;31.56;23.42
43125;BME280;49182;50.788;7.318;2023-06-10T11:59:05;100614.00;;;31.62;22.84
43125;BME280;49182;50.788;7.318;2023-06-10T12:01:34;100604.72;;;31.68;24.16
43125;BME280;49182;50.788;7.318;2023-06-10T12:04:03;100606.63;;;31.68;23.61
43125;BME280;49182;50.788;7.318;2023-06-10T12:06:38;100601.97;;;31.68;23.96
43125;BME280;49182;50.788;7.318;2023-06-10T12:09:05;100598.41;;;31.73;24.50
43125;BME280;49182;50.788;7.318;2023-06-10T12:11:50;100601.41;;;31.92;23.83
43125;BME280;49182;50.788;7.318;2023-06-10T12:14:52;100588.00;;;32.00;23.25
43125;BME280;49182;50.788;7.318;2023-06-10T12:17:20;100589.63;;;32.11;22.74
43125;BME280;49182;50.788;7.318;2023-06-10T12:19:47;100577.59;;;32.23;23.68
43125;BME280;49182;50.788;7.318;2023-06-10T12:22:13;100598.88;;;32.31;22.71
43125;BME280;49182;50.788;7.318;2023-06-10T12:24:44;100589.88;;;32.25;22.28
43125;BME280;49182;50.788;7.318;2023-06-10T12:27:11;100594.78;;;32.28;22.35
43125;BME280;49182;50.788;7.318;2023-06-10T12:29:38;100593.41;;;32.36;22.14
43125;BME280;49182;50.788;7.318;2023-06-10T12:32:07;100590.91;;;32.44;22.38
43125;BME280;49182;50.788;7.318;2023-06-10T12:34:36;100591.13;;;32.53;21.63
43125;BME280;49182;50.788;7.318;2023-06-10T12:37:04;100589.50;;;32.57;22.62
43125;BME280;49182;50.788;7.318;2023-06-10T12:39:32;100594.66;;;32.64;22.13
43125;BME280;49182;50.788;7.318;2023-06-10T12:41:59;100595.47;;;32.69;22.08
43125;BME280;49182;50.788;7.318;2023-06-10T12:44:30;100597.38;;;32.74;22.03
43125;BME280;49182;50.788;7.318;2023-06-10T12:46:57;100601.41;;;32.86;20.98
43125;BME280;49182;50.788;7.318;2023-06-10T12:49:26;100599.41;;;32.97;21.22
43125;BME280;49182;50.788;7.318;2023-06-10T12:51:53;100581.56;;;33.10;21.92
43125;BME280;49182;50.788;7.318;2023-06-10T12:54:19;100589.34;;;33.37;22.10